createdAt,value
2022-07-25T00:00:26.492Z,8.80
2022-07-25T00:02:53.378Z,6.80
2022-07-25T00:05:21.249Z,5.97
2022-07-25T00:07:48.734Z,7.63
2022-07-25T00:10:16.408Z,12.60
2022-07-25T00:12:43.462Z,7.87
2022-07-25T00:15:11.298Z,7.90
2022-07-25T00:17:38.636Z,10.00
2022-07-25T00:20:06.705Z,7.80
2022-07-25T00:22:33.765Z,6.80
2022-07-25T00:25:00.859Z,6.07
2022-07-25T00:27:27.766Z,7.20
2022-07-25T00:29:54.729Z,8.60
2022-07-25T00:32:21.639Z,6.10
2022-07-25T00:34:48.575Z,6.60
2022-07-25T00:37:15.573Z,5.20
2022-07-25T00:39:42.510Z,8.20
2022-07-25T00:42:09.440Z,7.33
2022-07-25T00:44:36.370Z,5.30
2022-07-25T00:47:03.291Z,6.93
2022-07-25T00:49:30.229Z,7.17
2022-07-25T00:51:57.934Z,6.23
2022-07-25T00:54:25.243Z,7.13
2022-07-25T00:56:52.675Z,6.93
2022-07-25T00:59:19.633Z,7.17
2022-07-25T01:01:48.480Z,7.80
2022-07-25T01:04:16.201Z,6.70
2022-07-25T01:06:43.279Z,8.23
2022-07-25T01:09:10.531Z,5.37
2022-07-25T01:11:38.861Z,6.80
2022-07-25T01:14:06.128Z,8.43
2022-07-25T01:16:33.801Z,7.87
2022-07-25T01:19:00.744Z,8.23
2022-07-25T01:21:28.078Z,5.60
2022-07-25T01:23:55.021Z,6.10
2022-07-25T01:26:22.084Z,5.60
2022-07-25T01:28:49.098Z,5.60
2022-07-25T01:31:16.126Z,7.03
2022-07-25T01:33:43.112Z,7.80
2022-07-25T01:36:10.199Z,5.60
2022-07-25T01:38:37.188Z,7.10
2022-07-25T01:41:04.136Z,5.63
2022-07-25T01:43:31.240Z,6.90
2022-07-25T01:45:58.256Z,5.23
2022-07-25T01:48:25.369Z,6.20
2022-07-25T01:50:52.441Z,5.90
2022-07-25T01:53:19.389Z,5.27
2022-07-25T01:55:47.376Z,7.03
2022-07-25T01:58:14.336Z,5.00
2022-07-25T02:00:41.701Z,5.40
2022-07-25T02:03:27.439Z,5.43
2022-07-25T02:05:54.999Z,8.30
2022-07-25T02:08:23.329Z,8.10
2022-07-25T02:10:50.323Z,5.90
2022-07-25T02:13:17.317Z,5.77
2022-07-25T02:15:44.236Z,4.60
2022-07-25T02:18:11.237Z,5.67
2022-07-25T02:20:38.284Z,5.03
2022-07-25T02:23:05.996Z,6.40
2022-07-25T02:25:33.791Z,5.30
2022-07-25T02:28:01.025Z,4.93
2022-07-25T02:30:28.354Z,5.23
2022-07-25T02:32:55.318Z,6.10
2022-07-25T02:35:22.328Z,5.10
2022-07-25T02:37:49.268Z,5.70
2022-07-25T02:40:16.190Z,6.70
2022-07-25T02:42:43.102Z,6.47
2022-07-25T02:45:10.315Z,4.80
2022-07-25T02:47:37.206Z,5.90
2022-07-25T02:50:04.943Z,8.10
2022-07-25T02:52:31.875Z,8.67
2022-07-25T02:54:58.838Z,5.50
2022-07-25T02:57:25.733Z,8.40
2022-07-25T02:59:52.681Z,6.30
2022-07-25T03:02:19.615Z,7.83
2022-07-25T03:04:46.534Z,5.60
2022-07-25T03:07:13.503Z,7.90
2022-07-25T03:09:40.445Z,5.20
2022-07-25T03:12:07.356Z,13.10
2022-07-25T03:14:34.839Z,5.27
2022-07-25T03:17:01.847Z,5.20
2022-07-25T03:19:28.906Z,4.83
2022-07-25T03:21:55.857Z,5.67
2022-07-25T03:24:22.885Z,5.50
2022-07-25T03:26:50.022Z,6.67
2022-07-25T03:29:17.057Z,5.10
2022-07-25T03:31:44.525Z,6.00
2022-07-25T03:34:11.530Z,5.23
2022-07-25T03:36:38.428Z,8.30
2022-07-25T03:39:06.422Z,6.40
2022-07-25T03:41:33.713Z,5.00
2022-07-25T03:44:00.655Z,7.50
2022-07-25T03:46:27.585Z,6.10
2022-07-25T03:48:55.603Z,8.53
2022-07-25T03:51:22.699Z,5.63
2022-07-25T03:54:05.591Z,6.63
2022-07-25T03:56:43.415Z,6.13
2022-07-25T03:59:14.821Z,7.10
2022-07-25T04:01:43.546Z,6.23
2022-07-25T04:04:10.931Z,5.70
2022-07-25T04:06:39.068Z,7.33
2022-07-25T04:09:08.623Z,7.43
2022-07-25T04:11:35.990Z,8.23
2022-07-25T04:14:03.432Z,10.80
2022-07-25T04:16:30.783Z,5.10
2022-07-25T04:18:57.761Z,6.20
2022-07-25T04:21:25.545Z,5.67
2022-07-25T04:23:52.893Z,5.97
2022-07-25T04:26:20.066Z,6.00
2022-07-25T04:28:47.039Z,12.53
2022-07-25T04:31:14.187Z,5.37
2022-07-25T04:33:42.233Z,5.87
2022-07-25T04:36:09.243Z,5.70
2022-07-25T04:38:36.379Z,5.87
2022-07-25T04:41:04.534Z,4.47
2022-07-25T04:43:31.484Z,4.87
2022-07-25T04:45:58.480Z,5.37
2022-07-25T04:48:25.602Z,4.90
2022-07-25T04:50:52.649Z,4.70
2022-07-25T04:53:19.716Z,4.80
2022-07-25T04:55:46.785Z,6.37
2022-07-25T04:58:13.799Z,6.33
2022-07-25T05:00:41.746Z,5.47
2022-07-25T05:03:08.692Z,8.30
2022-07-25T05:05:35.615Z,6.00
2022-07-25T05:08:02.526Z,10.30
2022-07-25T05:10:30.394Z,5.00
2022-07-25T05:12:57.331Z,4.70
2022-07-25T05:15:24.765Z,6.33
2022-07-25T05:17:51.797Z,6.27
2022-07-25T05:20:19.037Z,7.87
2022-07-25T05:22:45.959Z,6.10
2022-07-25T05:25:13.158Z,12.00
2022-07-25T05:27:40.752Z,4.80
2022-07-25T05:30:10.323Z,5.57
2022-07-25T05:32:38.271Z,4.67
2022-07-25T05:35:08.036Z,9.03
2022-07-25T05:37:36.497Z,8.20
2022-07-25T05:40:05.971Z,4.80
2022-07-25T05:42:32.876Z,11.27
2022-07-25T05:45:00.189Z,6.73
2022-07-25T05:47:27.118Z,4.93
2022-07-25T05:49:54.329Z,5.03
2022-07-25T05:52:21.296Z,10.27
2022-07-25T05:54:48.233Z,6.57
2022-07-25T05:57:15.123Z,5.70
2022-07-25T05:59:42.066Z,4.40
2022-07-25T06:02:09.037Z,6.47
2022-07-25T06:04:36.033Z,4.80
2022-07-25T06:07:02.929Z,3.50
2022-07-25T06:09:31.869Z,5.43
2022-07-25T06:12:01.136Z,4.50
2022-07-25T06:14:29.526Z,5.60
2022-07-25T06:16:57.181Z,7.93
2022-07-25T06:19:24.211Z,6.77
2022-07-25T06:21:51.197Z,16.03
2022-07-25T06:24:18.196Z,8.37
2022-07-25T06:26:45.094Z,6.93
2022-07-25T06:29:12.270Z,6.23
2022-07-25T06:31:39.303Z,5.43
2022-07-25T06:34:06.807Z,7.20
2022-07-25T06:36:34.144Z,6.63
2022-07-25T06:39:01.611Z,6.20
2022-07-25T06:41:28.523Z,7.80
2022-07-25T06:43:55.457Z,7.77
2022-07-25T06:46:22.409Z,8.73
2022-07-25T06:48:49.462Z,6.47
2022-07-25T06:51:16.407Z,6.53
2022-07-25T06:53:43.751Z,5.70
2022-07-25T06:56:15.765Z,7.30
2022-07-25T06:58:44.796Z,8.40
2022-07-25T07:01:11.824Z,10.43
2022-07-25T07:03:40.238Z,9.10
2022-07-25T07:06:09.432Z,7.53
2022-07-25T07:08:37.764Z,5.80
2022-07-25T07:11:06.516Z,7.03
2022-07-25T07:13:34.114Z,10.97
2022-07-25T07:16:01.497Z,7.40
2022-07-25T07:18:28.657Z,8.20
2022-07-25T07:20:55.560Z,14.50
2022-07-25T07:23:22.488Z,8.93
2022-07-25T07:25:51.685Z,5.60
2022-07-25T07:28:18.775Z,6.57
2022-07-25T07:31:15.038Z,10.80
2022-07-25T07:33:33.530Z,10.93
2022-07-25T07:36:01.710Z,7.23
2022-07-25T07:38:28.696Z,10.73
2022-07-25T07:40:55.609Z,7.43
2022-07-25T07:43:27.648Z,9.30
2022-07-25T07:46:01.525Z,9.43
2022-07-25T07:48:30.385Z,7.30
2022-07-25T07:50:58.116Z,8.93
2022-07-25T07:53:44.080Z,7.93
2022-07-25T07:56:12.072Z,8.10
2022-07-25T07:58:39.144Z,11.93
2022-07-25T08:01:06.498Z,9.97
2022-07-25T08:03:33.631Z,6.53
2022-07-25T08:06:00.643Z,10.00
2022-07-25T08:08:31.079Z,7.43
2022-07-25T08:10:59.322Z,6.77
2022-07-25T08:13:30.710Z,5.60
2022-07-25T08:15:59.616Z,8.40
2022-07-25T08:18:29.863Z,6.10
2022-07-25T08:20:57.173Z,6.37
2022-07-25T08:23:25.673Z,6.50
2022-07-25T08:25:52.683Z,6.57
2022-07-25T08:28:20.861Z,9.87
2022-07-25T08:30:47.870Z,7.70
2022-07-25T08:33:18.027Z,9.93
2022-07-25T08:35:54.529Z,7.30
2022-07-25T08:38:24.094Z,6.33
2022-07-25T08:40:51.789Z,5.37
2022-07-25T08:43:19.700Z,5.07
2022-07-25T08:45:53.570Z,5.60
2022-07-25T08:48:26.407Z,8.00
2022-07-25T08:50:54.857Z,7.07
2022-07-25T08:53:37.923Z,10.03
2022-07-25T08:56:12.555Z,9.10
2022-07-25T08:58:44.111Z,6.60
2022-07-25T09:01:12.975Z,11.27
2022-07-25T09:03:42.360Z,5.80
2022-07-25T09:06:22.470Z,5.63
2022-07-25T09:08:59.457Z,5.70
2022-07-25T09:11:35.989Z,8.35
2022-07-25T09:14:08.925Z,6.85
2022-07-25T09:16:44.456Z,12.98
2022-07-25T09:19:21.221Z,8.70
2022-07-25T09:22:10.266Z,7.75
2022-07-25T09:24:44.791Z,6.22
2022-07-25T09:27:12.794Z,8.70
2022-07-25T09:29:42.525Z,7.00
2022-07-25T09:32:20.669Z,6.32
2022-07-25T09:34:49.929Z,8.30
2022-07-25T09:37:19.551Z,6.20
2022-07-25T09:39:49.840Z,6.38
2022-07-25T09:42:25.566Z,5.78
2022-07-25T09:45:11.294Z,11.57
2022-07-25T09:47:50.564Z,5.38
2022-07-25T09:50:18.972Z,11.32
2022-07-25T09:52:46.732Z,7.22
2022-07-25T09:55:16.805Z,9.32
2022-07-25T09:57:45.106Z,7.25
2022-07-25T10:00:18.984Z,10.98
2022-07-25T10:02:55.571Z,5.03
2022-07-25T10:05:59.663Z,7.43
2022-07-25T10:08:27.326Z,8.93
2022-07-25T10:10:54.321Z,5.93
2022-07-25T10:13:35.121Z,6.57
2022-07-25T10:16:03.021Z,6.13
2022-07-25T10:18:30.958Z,5.13
2022-07-25T10:21:25.449Z,10.73
2022-07-25T10:24:06.414Z,12.63
2022-07-25T10:26:39.349Z,8.07
2022-07-25T10:29:11.949Z,5.43
2022-07-25T10:31:49.941Z,6.88
2022-07-25T10:34:30.955Z,6.53
2022-07-25T10:37:14.327Z,5.63
2022-07-25T10:39:48.083Z,6.30
2022-07-25T10:42:17.872Z,5.93
2022-07-25T10:45:09.416Z,6.25
2022-07-25T10:47:42.401Z,5.72
2022-07-25T10:50:25.618Z,5.32
2022-07-25T10:53:00.574Z,7.03
2022-07-25T10:55:29.370Z,7.40
2022-07-25T10:58:21.653Z,7.88
2022-07-25T11:00:48.671Z,9.18
2022-07-25T11:03:18.440Z,10.32
2022-07-25T11:05:47.387Z,28.92
2022-07-25T11:08:22.648Z,9.45
2022-07-25T11:10:53.375Z,14.80
2022-07-25T11:13:20.681Z,10.07
2022-07-25T11:15:48.176Z,11.35
2022-07-25T11:18:15.139Z,9.05
2022-07-25T11:20:42.078Z,17.33
2022-07-25T11:23:09.030Z,10.48
2022-07-25T11:25:35.994Z,11.82
2022-07-25T11:28:03.852Z,11.00
2022-07-25T11:30:31.137Z,9.68
2022-07-25T11:33:01.530Z,10.57
2022-07-25T11:35:31.573Z,11.35
2022-07-25T11:38:02.499Z,15.07
2022-07-25T11:40:30.843Z,12.77
2022-07-25T11:42:59.665Z,14.02
2022-07-25T11:45:31.007Z,10.43
2022-07-25T11:48:08.199Z,10.70
2022-07-25T11:50:39.665Z,9.55
2022-07-25T11:53:10.097Z,7.95
2022-07-25T11:55:42.449Z,7.85
2022-07-25T11:58:12.834Z,9.25
2022-07-25T12:00:47.671Z,8.15
2022-07-25T12:03:21.095Z,9.52
2022-07-25T12:05:50.054Z,7.25
2022-07-25T12:08:19.963Z,16.30
2022-07-25T12:10:49.157Z,7.32
2022-07-25T12:13:25.689Z,7.25
2022-07-25T12:15:53.666Z,8.57
2022-07-25T12:18:20.581Z,12.13
2022-07-25T12:20:47.489Z,8.68
2022-07-25T12:23:14.770Z,9.27
2022-07-25T12:25:45.891Z,12.43
2022-07-25T12:28:13.575Z,8.02
2022-07-25T12:30:42.413Z,7.55
2022-07-25T12:33:10.433Z,9.75
2022-07-25T12:35:37.763Z,7.53
2022-07-25T12:38:05.144Z,7.93
2022-07-25T12:40:32.313Z,7.25
2022-07-25T12:42:59.839Z,7.47
2022-07-25T12:45:27.865Z,13.73
2022-07-25T12:47:55.034Z,7.38
2022-07-25T12:50:25.586Z,7.32
2022-07-25T12:52:52.534Z,7.93
2022-07-25T12:55:20.894Z,6.97
2022-07-25T12:57:49.461Z,6.57
2022-07-25T13:00:20.370Z,7.78
2022-07-25T13:02:48.842Z,7.25
2022-07-25T13:05:15.873Z,5.97
2022-07-25T13:07:42.808Z,6.80
2022-07-25T13:10:10.416Z,6.88
2022-07-25T13:12:37.323Z,7.22
2022-07-25T13:15:05.128Z,13.05
2022-07-25T13:17:32.406Z,8.88
2022-07-25T13:19:59.907Z,9.00
2022-07-25T13:22:26.920Z,16.05
2022-07-25T13:24:54.507Z,7.40
2022-07-25T13:27:22.918Z,9.27
2022-07-25T13:29:56.296Z,8.20
2022-07-25T13:32:23.883Z,6.95
2022-07-25T13:34:51.049Z,6.53
2022-07-25T13:37:18.108Z,6.88
2022-07-25T13:39:45.055Z,6.88
2022-07-25T13:42:11.968Z,6.85
2022-07-25T13:44:38.905Z,9.80
2022-07-25T13:47:06.172Z,10.68
2022-07-25T13:49:33.217Z,18.27
2022-07-25T13:52:00.140Z,18.95
2022-07-25T13:54:27.108Z,7.63
2022-07-25T13:56:54.027Z,8.80
2022-07-25T13:59:21.898Z,8.15
2022-07-25T14:01:50.519Z,8.88
2022-07-25T14:04:17.882Z,6.70
2022-07-25T14:06:45.057Z,11.35
2022-07-25T14:09:12.086Z,6.70
2022-07-25T14:11:39.134Z,9.23
2022-07-25T14:14:06.084Z,8.52
2022-07-25T14:16:34.114Z,8.73
2022-07-25T14:19:02.226Z,7.63
2022-07-25T14:21:30.549Z,7.07
2022-07-25T14:23:57.471Z,7.63
2022-07-25T14:26:24.411Z,10.15
2022-07-25T14:28:51.366Z,6.65
2022-07-25T14:31:18.359Z,7.07
2022-07-25T14:33:45.330Z,11.15
2022-07-25T14:36:12.787Z,7.20
2022-07-25T14:38:39.752Z,12.55
2022-07-25T14:41:12.521Z,7.75
2022-07-25T14:43:41.466Z,9.68
2022-07-25T14:46:09.032Z,8.13
2022-07-25T14:48:37.592Z,10.80
2022-07-25T14:51:05.616Z,19.85
2022-07-25T14:53:33.750Z,7.97
2022-07-25T14:56:02.314Z,20.33
2022-07-25T14:58:29.250Z,10.10
2022-07-25T15:00:56.242Z,7.53
2022-07-25T15:03:23.308Z,8.88
2022-07-25T15:05:50.231Z,7.57
2022-07-25T15:08:17.178Z,14.52
2022-07-25T15:10:44.096Z,7.55
2022-07-25T15:13:30.336Z,7.35
2022-07-25T15:15:58.254Z,7.72
2022-07-25T15:18:25.271Z,9.57
2022-07-25T15:20:52.256Z,6.70
2022-07-25T15:23:21.084Z,9.65
2022-07-25T15:26:04.773Z,8.32
2022-07-25T15:28:37.492Z,7.10
2022-07-25T15:31:06.211Z,16.25
2022-07-25T15:33:33.484Z,9.27
2022-07-25T15:36:00.473Z,7.55
2022-07-25T15:38:28.870Z,7.30
2022-07-25T15:40:55.879Z,15.25
2022-07-25T15:43:23.261Z,7.10
2022-07-25T15:45:50.572Z,7.90
2022-07-25T15:48:18.334Z,9.38
2022-07-25T15:50:48.713Z,10.23
2022-07-25T15:53:15.947Z,25.55
2022-07-25T15:55:43.310Z,22.25
2022-07-25T15:58:11.500Z,28.70
2022-07-25T16:00:39.979Z,12.45
2022-07-25T16:03:07.199Z,15.50
2022-07-25T16:05:35.171Z,12.30
2022-07-25T16:08:03.353Z,20.80
2022-07-25T16:10:32.112Z,18.63
2022-07-25T16:12:59.343Z,20.50
2022-07-25T16:15:26.505Z,13.30
2022-07-25T16:18:00.114Z,14.30
2022-07-25T16:20:31.502Z,15.17
2022-07-25T16:22:59.299Z,9.50
2022-07-25T16:25:29.226Z,11.30
2022-07-25T16:27:56.740Z,11.23
2022-07-25T16:30:23.867Z,10.57
2022-07-25T16:32:50.786Z,12.53
2022-07-25T16:35:17.761Z,10.90
2022-07-25T16:37:44.819Z,12.57
2022-07-25T16:40:12.452Z,11.97
2022-07-25T16:42:39.651Z,14.23
2022-07-25T16:45:07.459Z,16.47
2022-07-25T16:47:36.983Z,16.47
2022-07-25T16:50:04.345Z,15.83
2022-07-25T16:52:31.243Z,18.70
2022-07-25T16:54:58.173Z,17.53
2022-07-25T16:57:25.402Z,18.93
2022-07-25T16:59:53.404Z,15.80
2022-07-25T17:02:23.878Z,14.03
2022-07-25T17:04:54.823Z,13.73
2022-07-25T17:07:21.811Z,18.50
2022-07-25T17:09:48.732Z,18.40
2022-07-25T17:12:17.323Z,14.20
2022-07-25T17:14:45.001Z,13.10
2022-07-25T17:17:12.010Z,17.40
2022-07-25T17:19:41.455Z,12.53
2022-07-25T17:22:09.883Z,15.23
2022-07-25T17:24:37.215Z,13.67
2022-07-25T17:27:04.253Z,13.43
2022-07-25T17:29:31.280Z,16.50
2022-07-25T17:31:58.315Z,15.03
2022-07-25T17:34:26.842Z,16.93
2022-07-25T17:36:54.936Z,14.07
2022-07-25T17:39:22.065Z,16.60
2022-07-25T17:41:49.093Z,12.10
2022-07-25T17:44:16.462Z,20.83
2022-07-25T17:46:44.124Z,17.53
2022-07-25T17:49:11.234Z,14.03
2022-07-25T17:51:38.220Z,14.70
2022-07-25T17:54:05.882Z,20.37
2022-07-25T17:56:33.620Z,15.20
2022-07-25T17:59:00.570Z,14.70
2022-07-25T18:01:27.522Z,14.27
2022-07-25T18:03:54.471Z,15.40
2022-07-25T18:06:24.068Z,14.07
2022-07-25T18:08:54.723Z,16.97
2022-07-25T18:11:21.645Z,14.70
2022-07-25T18:13:48.594Z,10.60
2022-07-25T18:16:15.700Z,14.80
2022-07-25T18:18:42.735Z,12.83
2022-07-25T18:21:09.667Z,14.53
2022-07-25T18:23:36.639Z,16.40
2022-07-25T18:26:04.417Z,15.50
2022-07-25T18:28:31.387Z,13.83
2022-07-25T18:30:58.375Z,19.20
2022-07-25T18:33:25.591Z,21.00
2022-07-25T18:35:52.572Z,16.17
2022-07-25T18:38:19.558Z,15.17
2022-07-25T18:40:46.500Z,13.53
2022-07-25T18:43:13.674Z,11.83
2022-07-25T18:45:40.808Z,14.00
2022-07-25T18:48:08.328Z,8.93
2022-07-25T18:50:35.262Z,9.47
2022-07-25T18:53:02.185Z,12.10
2022-07-25T18:55:29.207Z,9.23
2022-07-25T18:57:56.120Z,10.57
2022-07-25T19:00:23.058Z,10.90
2022-07-25T19:02:50.546Z,21.77
2022-07-25T19:05:17.507Z,21.63
2022-07-25T19:07:44.566Z,15.53
2022-07-25T19:10:11.737Z,18.90
2022-07-25T19:12:40.081Z,18.10
2022-07-25T19:15:07.804Z,17.60
2022-07-25T19:17:35.867Z,18.47
2022-07-25T19:20:02.824Z,18.90
2022-07-25T19:22:29.738Z,19.50
2022-07-25T19:24:56.679Z,27.90
2022-07-25T19:27:25.799Z,28.67
2022-07-25T19:29:52.742Z,37.83
2022-07-25T19:32:19.642Z,35.07
2022-07-25T19:34:46.563Z,26.43
2022-07-25T19:37:13.461Z,34.20
2022-07-25T19:39:40.405Z,32.70
2022-07-25T19:42:09.724Z,27.33
2022-07-25T19:44:37.183Z,29.03
2022-07-25T19:47:07.252Z,24.83
2022-07-25T19:49:36.732Z,26.87
2022-07-25T19:52:03.818Z,25.37
2022-07-25T19:54:30.710Z,27.77
2022-07-25T19:56:57.931Z,22.20
2022-07-25T19:59:24.830Z,26.97
2022-07-25T20:01:52.288Z,22.63
2022-07-25T20:04:19.448Z,27.73
2022-07-25T20:06:46.471Z,23.40
2022-07-25T20:09:14.094Z,29.87
2022-07-25T20:11:41.365Z,25.93
2022-07-25T20:14:09.406Z,24.70
2022-07-25T20:16:37.905Z,26.97
2022-07-25T20:19:08.183Z,27.90
2022-07-25T20:21:39.716Z,24.47
2022-07-25T20:24:07.194Z,21.77
2022-07-25T20:26:34.428Z,18.90
2022-07-25T20:29:01.569Z,16.87
2022-07-25T20:31:28.574Z,19.57
2022-07-25T20:33:55.538Z,18.90
2022-07-25T20:36:22.443Z,21.23
2022-07-25T20:38:49.517Z,22.53
2022-07-25T20:41:16.519Z,18.57
2022-07-25T20:43:43.490Z,24.00
2022-07-25T20:46:10.435Z,21.50
2022-07-25T20:48:37.529Z,19.90
2022-07-25T20:51:04.647Z,17.77
2022-07-25T20:53:31.604Z,16.70
2022-07-25T20:55:59.219Z,19.93
2022-07-25T20:58:26.140Z,15.33
2022-07-25T21:00:53.150Z,17.33
2022-07-25T21:03:20.097Z,24.20
2022-07-25T21:05:47.005Z,17.87
2022-07-25T21:08:15.221Z,15.77
2022-07-25T21:10:42.364Z,10.53
2022-07-25T21:13:09.388Z,16.23
2022-07-25T21:15:36.307Z,15.47
2022-07-25T21:18:03.277Z,10.90
2022-07-25T21:20:30.263Z,10.93
2022-07-25T21:22:57.185Z,13.47
2022-07-25T21:25:24.162Z,12.30
2022-07-25T21:27:51.128Z,12.63
2022-07-25T21:30:18.100Z,13.53
2022-07-25T21:32:45.100Z,11.70
2022-07-25T21:35:12.254Z,12.53
2022-07-25T21:37:39.945Z,15.37
2022-07-25T21:40:07.947Z,18.40
2022-07-25T21:42:36.266Z,10.20
2022-07-25T21:45:03.793Z,10.27
2022-07-25T21:47:30.732Z,16.83
2022-07-25T21:50:19.185Z,8.90
2022-07-25T21:52:52.630Z,14.20
2022-07-25T21:55:21.316Z,10.87
2022-07-25T21:57:48.890Z,13.50
2022-07-25T22:00:16.435Z,10.87
2022-07-25T22:02:46.053Z,12.83
2022-07-25T22:05:14.526Z,9.93
2022-07-25T22:07:42.680Z,14.07
2022-07-25T22:10:11.831Z,15.93
2022-07-25T22:12:39.891Z,14.37
2022-07-25T22:15:11.961Z,10.80
2022-07-25T22:17:48.395Z,12.87
2022-07-25T22:20:18.413Z,13.90
2022-07-25T22:22:47.101Z,12.57
2022-07-25T22:25:14.207Z,13.30
2022-07-25T22:27:41.102Z,12.47
2022-07-25T22:30:10.556Z,13.70
2022-07-25T22:32:40.311Z,14.13
2022-07-25T22:35:07.777Z,15.33
2022-07-25T22:37:34.677Z,14.53
2022-07-25T22:40:01.839Z,14.70
2022-07-25T22:42:28.785Z,14.73
2022-07-25T22:44:55.718Z,13.23
2022-07-25T22:47:22.617Z,13.90
2022-07-25T22:49:49.760Z,8.93
2022-07-25T22:52:16.653Z,14.60
2022-07-25T22:54:43.749Z,14.33
2022-07-25T22:57:10.654Z,12.67
2022-07-25T22:59:37.574Z,10.87
2022-07-25T23:02:04.985Z,22.93
2022-07-25T23:04:31.995Z,14.00
2022-07-25T23:06:58.940Z,20.33
2022-07-25T23:09:25.919Z,14.70
2022-07-25T23:12:05.276Z,13.90
2022-07-25T23:14:32.278Z,15.90
2022-07-25T23:17:31.608Z,13.83
2022-07-25T23:19:58.680Z,12.43
2022-07-25T23:22:28.157Z,17.33
2022-07-25T23:24:56.419Z,10.83
2022-07-25T23:27:23.950Z,12.90
2022-07-25T23:29:50.971Z,12.07
2022-07-25T23:32:18.091Z,11.60
2022-07-25T23:34:45.189Z,16.80
2022-07-25T23:37:12.096Z,13.67
2022-07-25T23:39:39.017Z,10.47
2022-07-25T23:42:05.942Z,14.47
2022-07-25T23:44:32.873Z,16.83
2022-07-25T23:47:01.419Z,10.53
2022-07-25T23:49:28.548Z,10.30
2022-07-25T23:51:57.136Z,13.60
2022-07-25T23:54:24.755Z,11.80
2022-07-25T23:56:52.320Z,12.00
2022-07-25T23:59:19.705Z,14.67
